Skip Navigation Links
NOAA logo - Click to go to the NOAA homepage
NOAA's National Weather Service
Alaska Aviation Weather Unit
  NWS logo - Click to go to the NWS homepage
Left Navbar Graphic     17 AKDT = 01 GMT

   
NOAA is celebrating 200 years of science, service, and stewardship. Visit the NOAA 200th celebration Web site to learn more.
USA.gov is the U.S. Government's official Web portal to all Federal, state and local government Web resources and services.
Facebook
NWS on Facebook

Important Change Regarding the AAWU Web Presence

 

Over the last several months, the AAWU has been working to navigate its webpages to a nationally supported server. Security, as well as other needs, have necessitated the change.  We have been given an extension for the site changeover while we diligently work at addressing feedback received. As of July 14, 2017, aawu.arh.noaa.gov will be discontinued. The new AAWU web address is weather.gov/aawu. It is now live and will run in-parallel with the old site until it is discontinued on July 14, 2017. Please continue to send any feedback or questions regarding the new webpages to nws.ar.aawu.webauthors@noaa.gov.  Thank you for your patience during this time of transition.
AAWU Home :: Display TAF Add Bookmark
TAF PAGA 180107Z 1801/1824  26005KT 5SM -SN BKN007 OVC012
      TEMPO 1801/1803 1SM -SHSN OVC007
     FM180900 VRB03KT P6SM -SHSN BCFG SCT005 OVC015
     FM181500 00000KT P6SM BKN015 OVC050
     FM182000 29004KT P6SM BKN050 BKN100=


PAGA 171911Z AUTO 18003KT 10SM OVC014 M02/M03 A2948 RMK AO2
     UPE1859 P0000 FZRANO=

PAGA 171952Z AUTO 25003KT 1 3/4SM -SN BR OVC010 M02/M03 A2949 RMK
     AO2 UPE1859B28E32SNB32 CIG 009V014 P0000 FZRANO=

METAR PAGA 171956Z AUTO 24003KT 1 1/4SM -SN BR BKN010 OVC014 M02/M03
     A2949=

SPECI PAGA 172005Z AUTO 24003KT 1SM -SN BR OVC012 M01/M02 A2949 RMK AO2
     P0000 FZRANO=

SPECI PAGA 172022Z AUTO 23004KT 3/4SM -SN BR OVC012 M01/M02 A2948 RMK
     AO2 P0000 FZRANO=

SPECI PAGA 172027Z AUTO 23005KT 3/4SM -SN BR BKN009 OVC012 M01/M02 A2948
     RMK AO2 CIG 005V011 P0000 FZRANO=

SPECI PAGA 172030Z AUTO 23004KT 1 1/4SM -SN BR BKN009 OVC012 M01/M02
     A2948 RMK AO2 VIS 1/2V5 CIG 005V011 P0000 FZRANO=

SPECI PAGA 172035Z AUTO 24004KT 3SM -SN BR BKN007 OVC012 M01/M02 A2948
     RMK AO2 CIG 005V010 P0000 FZRANO=

METAR PAGA 172056Z AUTO 24005KT 9SM -SN BKN005 OVC012 M01/M02 A2948=

METAR PAGA 172156Z AUTO 25005KT 9SM -SN BKN005 OVC012 00/M01 A2948=

SPECI PAGA 172216Z AUTO 26004KT 2 1/2SM -SN BR OVC005 00/M01 A2948 RMK
     AO2 P0000 FZRANO=

SPECI PAGA 172231Z AUTO 26006KT 4SM -SN BR OVC005 01/M01 A2948 RMK AO2
     P0000 FZRANO=

METAR PAGA 172256Z AUTO 26004KT 4SM -SN BR OVC005 01/M01 A2948=

PAGA 172344Z AUTO 25004KT 10SM OVC007 01/M01 A2947 RMK AO2
     UPB06E12RAB12E13SNE06 P0000 FZRANO=

METAR PAGA 172356Z AUTO 27003KT 10SM -RA OVC007 01/M01 A2947=

SPECI PAGA 180054Z AUTO 32005KT 1 3/4SM -RA BR OVC007 01/M01 A2946 RMK
     AO2 RAE03B52 CIG 006V011 P0000 FZRANO=

METAR PAGA 180056Z AUTO VRB04KT 1SM -RA BR OVC007 01/M01 A2946=

SPECI PAGA 180100Z AUTO 00000KT 1/2SM -RA FG OVC007 01/M02 A2946 RMK AO2
     CIG 004V011 P0000 FZRANO=

SPECI PAGA 180114Z AUTO 00000KT 1SM -SN BR BKN007 OVC024 00/M02 A2946
     RMK AO2 RAE01SNB01 CIG 004V012 P0001 FZRANO=

SPECI PAGA 180117Z AUTO 00000KT 2 1/2SM -SN BR BKN007 BKN024 OVC045
     00/M02 A2946 RMK AO2 VIS 3/4V5 RAE01SNB01 CIG 004V012 P0001
     FZRANO=

SPECI PAGA 180120Z AUTO 24003KT 5SM -SN BR SCT007 BKN024 OVC045 00/M01
     A2946 RMK AO2 RAE01SNB01 P0001 FZRANO=

SPECI PAGA 180131Z AUTO 25003KT 10SM FEW009 SCT024 OVC047 00/M01 A2946
     RMK AO2 RAE01UPB25E28SNB01E25 P0001 FZRANO=


NOAA's National Weather Service
Alaska Aviation Weather Unit
6930 Sand Lake Road
Anchorage, AK 99502-1845
Disclaimer
Credits
Glossary
Privacy Policy
About Us
Career Opportunities
Contact AAWU Internet Services Site last modified: April, 17th 2012